createdAt,value
2022-09-11T00:00:24.467Z,0
2022-09-11T00:01:24.366Z,0
2022-09-11T00:02:25.827Z,0
2022-09-11T00:03:25.732Z,0
2022-09-11T00:04:26.650Z,0
2022-09-11T00:05:27.565Z,0
2022-09-11T00:06:41.298Z,0
2022-09-11T00:07:29.510Z,0
2022-09-11T00:08:29.424Z,0
2022-09-11T00:09:30.629Z,0
2022-09-11T00:10:30.460Z,0
2022-09-11T00:11:31.671Z,0
2022-09-11T00:12:31.574Z,0
2022-09-11T00:13:33.093Z,0
2022-09-11T00:14:33.038Z,0
2022-09-11T00:15:33.255Z,0
2022-09-11T00:16:33.229Z,0
2022-09-11T00:17:33.848Z,0
2022-09-11T00:18:34.758Z,0
2022-09-11T00:19:35.160Z,0
2022-09-11T00:20:35.943Z,0
2022-09-11T00:21:36.581Z,0
2022-09-11T00:22:37.761Z,0
2022-09-11T00:23:37.742Z,0
2022-09-11T00:24:38.075Z,0
2022-09-11T00:25:39.262Z,0
2022-09-11T00:26:38.898Z,0
2022-09-11T00:27:39.512Z,0
2022-09-11T00:28:40.736Z,0
2022-09-11T00:29:40.950Z,0
2022-09-11T00:30:41.263Z,0
2022-09-11T00:31:41.953Z,0
2022-09-11T00:32:42.203Z,0
2022-09-11T00:33:42.251Z,0
2022-09-11T00:34:42.230Z,0
2022-09-11T00:35:41.822Z,0
2022-09-11T00:36:42.669Z,0
2022-09-11T00:37:43.011Z,0
2022-09-11T00:38:44.500Z,0
2022-09-11T00:39:44.472Z,0
2022-09-11T00:40:45.790Z,0
2022-09-11T00:41:45.976Z,0
2022-09-11T00:42:46.173Z,0
2022-09-11T00:43:47.241Z,0
2022-09-11T00:44:47.875Z,0
2022-09-11T00:45:48.697Z,0
2022-09-11T00:46:49.622Z,0
2022-09-11T00:47:50.240Z,0
2022-09-11T00:48:51.155Z,0
2022-09-11T00:49:51.352Z,0
2022-09-11T00:50:51.764Z,0
2022-09-11T00:51:52.178Z,0
2022-09-11T00:52:58.284Z,0
2022-09-11T00:53:52.860Z,0
2022-09-11T00:54:53.473Z,0
2022-09-11T00:55:54.963Z,0
2022-09-11T00:56:54.367Z,0
2022-09-11T00:57:55.278Z,0
2022-09-11T00:58:55.809Z,0
2022-09-11T00:59:55.725Z,0
2022-09-11T01:00:57.326Z,0
2022-09-11T01:01:57.702Z,0
2022-09-11T01:02:58.618Z,0
2022-09-11T01:03:58.992Z,0
2022-09-11T01:04:59.192Z,0
2022-09-11T01:05:59.679Z,0
2022-09-11T01:06:59.594Z,0
2022-09-11T01:08:00.083Z,0
2022-09-11T01:08:59.997Z,0
2022-09-11T01:10:00.628Z,0
2022-09-11T01:11:00.761Z,0
2022-09-11T01:12:01.676Z,0
2022-09-11T01:13:02.864Z,0
2022-09-11T01:14:03.382Z,0
2022-09-11T01:15:03.272Z,0
2022-09-11T01:16:04.555Z,0
2022-09-11T01:17:05.052Z,0
2022-09-11T01:18:05.241Z,0
2022-09-11T01:19:06.738Z,0
2022-09-11T01:20:05.663Z,0
2022-09-11T01:21:07.002Z,0
2022-09-11T01:22:07.615Z,0
2022-09-11T01:23:08.525Z,0
2022-09-11T01:24:09.160Z,0
2022-09-11T01:25:10.095Z,0
2022-09-11T01:26:10.295Z,0
2022-09-11T01:27:10.481Z,0
2022-09-11T01:28:10.373Z,0
2022-09-11T01:29:11.597Z,0
2022-09-11T01:30:16.791Z,0
2022-09-11T01:31:12.388Z,0
2022-09-11T01:32:13.287Z,0
2022-09-11T01:33:14.766Z,0
2022-09-11T01:34:14.701Z,0
2022-09-11T01:35:15.209Z,0
2022-09-11T01:36:15.731Z,0
2022-09-11T01:37:15.047Z,0
2022-09-11T01:38:15.964Z,0
2022-09-11T01:39:16.857Z,0
2022-09-11T01:40:18.014Z,0
2022-09-11T01:41:19.319Z,0
2022-09-11T01:42:19.235Z,0
2022-09-11T01:43:20.138Z,0
2022-09-11T01:44:20.406Z,0
2022-09-11T01:45:21.372Z,0
2022-09-11T01:46:22.347Z,0
2022-09-11T01:47:22.519Z,0
2022-09-11T01:48:22.708Z,0
2022-09-11T01:49:22.605Z,0
2022-09-11T01:50:23.795Z,0
2022-09-11T01:51:23.936Z,0
2022-09-11T01:52:24.825Z,0
2022-09-11T01:53:26.027Z,0
2022-09-11T01:54:26.215Z,0
2022-09-11T01:55:26.712Z,0
2022-09-11T01:56:26.040Z,0
2022-09-11T01:57:26.652Z,0
2022-09-11T01:58:27.288Z,0
2022-09-11T01:59:28.259Z,0
2022-09-11T02:00:28.495Z,0
2022-09-11T02:01:28.112Z,0
2022-09-11T02:02:29.548Z,0
2022-09-11T02:03:29.454Z,0
2022-09-11T02:04:30.068Z,0
2022-09-11T02:05:30.996Z,0
2022-09-11T02:06:31.636Z,0
2022-09-11T02:07:31.942Z,0
2022-09-11T02:08:32.854Z,0
2022-09-11T02:09:34.057Z,0
2022-09-11T02:10:34.667Z,0
2022-09-11T02:11:35.351Z,0
2022-09-11T02:12:35.953Z,0
2022-09-11T02:13:39.184Z,0
2022-09-11T02:14:37.121Z,0
2022-09-11T02:15:37.156Z,0
2022-09-11T02:16:39.244Z,0
2022-09-11T02:17:39.136Z,0
2022-09-11T02:18:39.766Z,0
2022-09-11T02:19:40.679Z,0
2022-09-11T02:20:42.180Z,0
2022-09-11T02:21:41.909Z,0
2022-09-11T02:22:42.525Z,0
2022-09-11T02:23:43.343Z,0
2022-09-11T02:24:44.327Z,0
2022-09-11T02:25:44.665Z,0
2022-09-11T02:26:45.595Z,0
2022-09-11T02:27:46.229Z,0
2022-09-11T02:28:47.718Z,0
2022-09-11T02:29:48.255Z,0
2022-09-11T02:30:48.441Z,0
2022-09-11T02:31:49.267Z,0
2022-09-11T02:32:49.191Z,0
2022-09-11T02:33:49.965Z,0
2022-09-11T02:34:50.881Z,0
2022-09-11T02:35:50.810Z,0
2022-09-11T02:36:51.721Z,0
2022-09-11T02:37:52.059Z,0
2022-09-11T02:38:52.694Z,0
2022-09-11T02:39:53.576Z,0
2022-09-11T02:40:53.923Z,0
2022-09-11T02:41:54.647Z,0
2022-09-11T02:42:54.969Z,0
2022-09-11T02:43:55.665Z,0
2022-09-11T02:44:57.183Z,0
2022-09-11T02:45:57.328Z,0
2022-09-11T02:46:57.268Z,0
2022-09-11T02:47:57.850Z,0
2022-09-11T02:48:59.070Z,0
2022-09-11T02:49:59.557Z,0
2022-09-11T02:50:59.770Z,0
2022-09-11T02:52:00.457Z,0
2022-09-11T02:53:01.746Z,0
2022-09-11T02:54:02.387Z,0
2022-09-11T02:55:03.300Z,0
2022-09-11T02:56:04.236Z,0
2022-09-11T02:57:04.720Z,0
2022-09-11T02:58:04.616Z,0
2022-09-11T02:59:05.825Z,0
2022-09-11T03:00:07.071Z,0
2022-09-11T03:01:06.742Z,0
2022-09-11T03:02:07.307Z,0
2022-09-11T03:03:08.212Z,0
2022-09-11T03:04:09.739Z,0
2022-09-11T03:05:09.357Z,0
2022-09-11T03:06:10.583Z,0
2022-09-11T03:07:10.782Z,0
2022-09-11T03:08:11.716Z,0
2022-09-11T03:09:11.908Z,0
2022-09-11T03:10:12.824Z,0
2022-09-11T03:11:12.417Z,0
2022-09-11T03:12:12.830Z,0
2022-09-11T03:13:13.161Z,0
2022-09-11T03:14:14.351Z,0
2022-09-11T03:15:15.591Z,0
2022-09-11T03:16:15.194Z,0
2022-09-11T03:17:16.731Z,0
2022-09-11T03:18:16.906Z,0
2022-09-11T03:19:16.821Z,0
2022-09-11T03:20:18.307Z,0
2022-09-11T03:21:17.648Z,0
2022-09-11T03:22:18.658Z,0
2022-09-11T03:23:18.587Z,0
2022-09-11T03:24:19.793Z,0
2022-09-11T03:25:19.722Z,0
2022-09-11T03:26:20.635Z,0
2022-09-11T03:27:21.248Z,0
2022-09-11T03:28:22.138Z,0
2022-09-11T03:29:23.049Z,0
2022-09-11T03:30:24.290Z,0
2022-09-11T03:31:23.907Z,0
2022-09-11T03:32:24.460Z,0
2022-09-11T03:33:25.333Z,0
2022-09-11T03:34:25.647Z,0
2022-09-11T03:35:26.537Z,0
2022-09-11T03:36:27.477Z,0
2022-09-11T03:37:27.382Z,0
2022-09-11T03:38:28.591Z,0
2022-09-11T03:39:28.238Z,0
2022-09-11T03:40:29.252Z,0
2022-09-11T03:41:30.180Z,0
2022-09-11T03:42:31.489Z,0
2022-09-11T03:43:31.382Z,0
2022-09-11T03:44:31.714Z,0
2022-09-11T03:45:33.602Z,0
2022-09-11T03:46:33.205Z,0
2022-09-11T03:47:34.120Z,0
2022-09-11T03:48:35.333Z,0
2022-09-11T03:49:35.222Z,0
2022-09-11T03:50:35.812Z,0
2022-09-11T03:51:37.020Z,0
2022-09-11T03:52:37.279Z,0
2022-09-11T03:53:38.761Z,0
2022-09-11T03:54:38.386Z,0
2022-09-11T03:55:39.583Z,0
2022-09-11T03:56:40.063Z,0
2022-09-11T03:57:39.701Z,0
2022-09-11T03:58:40.604Z,0
2022-09-11T03:59:41.813Z,0
2022-09-11T04:00:42.771Z,0
2022-09-11T04:01:42.713Z,0
2022-09-11T04:02:43.250Z,0
2022-09-11T04:03:43.931Z,0
2022-09-11T04:04:44.146Z,0
2022-09-11T04:05:45.101Z,0
2022-09-11T04:06:45.761Z,0
2022-09-11T04:07:46.651Z,0
2022-09-11T04:08:47.287Z,0
2022-09-11T04:09:48.195Z,0
2022-09-11T04:10:48.807Z,0
2022-09-11T04:11:53.991Z,0
2022-09-11T04:12:50.402Z,0
2022-09-11T04:13:51.406Z,0
2022-09-11T04:14:51.316Z,0
2022-09-11T04:15:52.839Z,0
2022-09-11T04:16:53.596Z,0
2022-09-11T04:17:53.512Z,0
2022-09-11T04:18:54.993Z,0
2022-09-11T04:19:54.586Z,0
2022-09-11T04:20:55.207Z,0
2022-09-11T04:21:56.418Z,0
2022-09-11T04:22:55.838Z,0
2022-09-11T04:23:56.825Z,0
2022-09-11T04:24:57.481Z,0
2022-09-11T04:25:58.394Z,0
2022-09-11T04:27:05.388Z,0
2022-09-11T04:28:00.303Z,0
2022-09-11T04:28:59.624Z,0
2022-09-11T04:30:00.944Z,0
2022-09-11T04:31:02.484Z,0
2022-09-11T04:32:02.382Z,0
2022-09-11T04:33:02.666Z,0
2022-09-11T04:34:08.282Z,0
2022-09-11T04:35:02.893Z,0
2022-09-11T04:36:03.236Z,0
2022-09-11T04:37:04.159Z,0
2022-09-11T04:38:05.340Z,0
2022-09-11T04:39:05.250Z,0
2022-09-11T04:40:06.128Z,0
2022-09-11T04:41:06.764Z,0
2022-09-11T04:42:07.375Z,0
2022-09-11T04:43:08.438Z,0
2022-09-11T04:44:15.988Z,0
2022-09-11T04:45:09.297Z,0
2022-09-11T04:46:10.831Z,0
2022-09-11T04:47:10.722Z,0
2022-09-11T04:48:12.233Z,0
2022-09-11T04:49:12.109Z,0
2022-09-11T04:50:13.321Z,0
2022-09-11T04:51:12.938Z,0
2022-09-11T04:52:14.151Z,0
2022-09-11T04:53:14.143Z,0
2022-09-11T04:54:15.154Z,0
2022-09-11T04:55:16.070Z,0
2022-09-11T04:56:16.708Z,0
2022-09-11T04:57:18.057Z,0
2022-09-11T04:58:17.969Z,0
2022-09-11T04:59:18.638Z,0
2022-09-11T05:00:19.841Z,0
2022-09-11T05:01:21.027Z,0
2022-09-11T05:02:21.194Z,0
2022-09-11T05:03:20.949Z,0
2022-09-11T05:04:25.405Z,0
2022-09-11T05:05:22.618Z,0
2022-09-11T05:06:23.826Z,0
2022-09-11T05:07:23.443Z,0
2022-09-11T05:08:24.351Z,0
2022-09-11T05:09:24.685Z,0
2022-09-11T05:10:25.891Z,0
2022-09-11T05:11:25.789Z,0
2022-09-11T05:12:26.401Z,0
2022-09-11T05:13:27.086Z,0
2022-09-11T05:14:27.994Z,0
2022-09-11T05:15:29.211Z,0
2022-09-11T05:16:29.461Z,0
2022-09-11T05:17:29.539Z,0
2022-09-11T05:18:30.483Z,0
2022-09-11T05:19:29.790Z,0
2022-09-11T05:20:31.000Z,0
2022-09-11T05:21:31.929Z,0
2022-09-11T05:22:32.135Z,0
2022-09-11T05:23:33.166Z,0
2022-09-11T05:24:33.098Z,0
2022-09-11T05:25:33.753Z,0
2022-09-11T05:26:34.371Z,0
2022-09-11T05:27:35.254Z,0
2022-09-11T05:28:35.864Z,0
2022-09-11T05:29:43.049Z,0
2022-09-11T05:30:38.257Z,0
2022-09-11T05:31:39.171Z,0
2022-09-11T05:32:38.812Z,0
2022-09-11T05:33:39.799Z,0
2022-09-11T05:34:40.403Z,0
2022-09-11T05:35:43.446Z,0
2022-09-11T05:36:41.934Z,0
2022-09-11T05:37:41.846Z,0
2022-09-11T05:38:42.757Z,0
2022-09-11T05:39:43.813Z,0
2022-09-11T05:40:44.731Z,0
2022-09-11T05:41:45.343Z,0
2022-09-11T05:42:45.954Z,0
2022-09-11T05:43:46.777Z,0
2022-09-11T05:44:47.439Z,0
2022-09-11T05:45:48.388Z,0
2022-09-11T05:46:49.329Z,0
2022-09-11T05:47:51.370Z,0
2022-09-11T05:48:49.482Z,0
2022-09-11T05:49:50.073Z,0
2022-09-11T05:50:50.980Z,0
2022-09-11T05:51:51.290Z,0
2022-09-11T05:52:52.214Z,0
2022-09-11T05:53:52.786Z,0
2022-09-11T05:54:53.227Z,0
2022-09-11T05:55:54.130Z,0
2022-09-11T05:56:54.741Z,0
2022-09-11T05:57:55.928Z,5.63
2022-09-11T05:58:56.114Z,5.63
2022-09-11T05:59:56.300Z,5.63
2022-09-11T06:00:56.444Z,5.63
2022-09-11T06:01:57.732Z,5.63
2022-09-11T06:02:57.958Z,5.63
2022-09-11T06:03:58.077Z,5.63
2022-09-11T06:04:58.287Z,5.63
2022-09-11T06:05:58.780Z,5.63
2022-09-11T06:06:58.403Z,5.63
2022-09-11T06:07:59.623Z,5.63
2022-09-11T06:08:59.830Z,5.63
2022-09-11T06:10:03.073Z,11.25
2022-09-11T06:11:00.066Z,11.25
2022-09-11T06:12:00.390Z,16.88
2022-09-11T06:13:01.299Z,16.88
2022-09-11T06:14:01.992Z,16.88
2022-09-11T06:15:02.891Z,11.25
2022-09-11T06:16:04.024Z,11.25
2022-09-11T06:17:04.487Z,5.63
2022-09-11T06:18:04.402Z,5.63
2022-09-11T06:19:05.784Z,5.63
2022-09-11T06:20:05.660Z,0
2022-09-11T06:21:06.276Z,0
2022-09-11T06:22:07.191Z,0
2022-09-11T06:23:12.467Z,5.63
2022-09-11T06:24:09.182Z,5.63
2022-09-11T06:25:09.076Z,5.63
2022-09-11T06:26:09.693Z,5.63
2022-09-11T06:27:10.606Z,5.63
2022-09-11T06:28:10.793Z,5.63
2022-09-11T06:29:10.414Z,5.63
2022-09-11T06:30:11.047Z,5.63
2022-09-11T06:31:11.588Z,5.63
2022-09-11T06:32:13.104Z,5.63
2022-09-11T06:33:12.713Z,5.63
2022-09-11T06:34:14.319Z,5.63
2022-09-11T06:35:14.216Z,5.63
2022-09-11T06:36:14.834Z,11.25
2022-09-11T06:37:15.450Z,11.25
2022-09-11T06:38:16.395Z,11.25
2022-09-11T06:39:16.013Z,11.25
2022-09-11T06:40:16.853Z,11.25
2022-09-11T06:41:17.176Z,11.25
2022-09-11T06:42:18.812Z,11.25
2022-09-11T06:43:19.724Z,11.25
2022-09-11T06:44:19.859Z,11.25
2022-09-11T06:45:21.770Z,11.25
2022-09-11T06:46:22.080Z,11.25
2022-09-11T06:47:23.325Z,11.25
2022-09-11T06:48:22.641Z,11.25
2022-09-11T06:49:23.855Z,11.25
2022-09-11T06:50:24.052Z,11.25
2022-09-11T06:51:24.368Z,5.63
2022-09-11T06:52:25.259Z,5.63
2022-09-11T06:53:26.186Z,5.63
2022-09-11T06:54:26.634Z,5.63
2022-09-11T06:55:27.378Z,11.25
2022-09-11T06:56:27.991Z,11.25
2022-09-11T06:57:28.605Z,11.25
2022-09-11T06:58:29.220Z,11.25
2022-09-11T06:59:30.209Z,11.25
2022-09-11T07:00:29.892Z,11.25
2022-09-11T07:01:31.153Z,11.25
2022-09-11T07:02:32.641Z,11.25
2022-09-11T07:03:32.561Z,11.25
2022-09-11T07:04:32.605Z,11.25
2022-09-11T07:05:33.505Z,11.25
2022-09-11T07:06:34.144Z,11.25
2022-09-11T07:07:35.328Z,11.25
2022-09-11T07:08:41.303Z,11.25
2022-09-11T07:09:35.916Z,16.88
2022-09-11T07:10:36.830Z,16.88
2022-09-11T07:11:37.734Z,16.88
2022-09-11T07:12:38.930Z,16.88
2022-09-11T07:13:42.690Z,16.88
2022-09-11T07:14:40.746Z,16.88
2022-09-11T07:15:40.959Z,16.88
2022-09-11T07:16:41.133Z,16.88
2022-09-11T07:17:42.117Z,16.88
2022-09-11T07:18:41.715Z,16.88
2022-09-11T07:19:42.681Z,16.88
2022-09-11T07:20:42.583Z,16.88
2022-09-11T07:21:43.200Z,16.88
2022-09-11T07:22:44.388Z,16.88
2022-09-11T07:23:44.584Z,16.88
2022-09-11T07:24:45.665Z,16.88
2022-09-11T07:25:46.606Z,16.88
2022-09-11T07:26:47.531Z,16.88
2022-09-11T07:27:47.848Z,11.25
2022-09-11T07:28:49.049Z,11.25
2022-09-11T07:29:49.379Z,11.25
2022-09-11T07:30:50.632Z,11.25
2022-09-11T07:31:51.144Z,5.63
2022-09-11T07:32:51.675Z,5.63
2022-09-11T07:33:51.295Z,11.25
2022-09-11T07:34:52.021Z,11.25
2022-09-11T07:35:52.324Z,11.25
2022-09-11T07:36:53.240Z,11.25
2022-09-11T07:37:58.036Z,11.25
2022-09-11T07:38:54.663Z,11.25
2022-09-11T07:39:55.498Z,11.25
2022-09-11T07:40:56.125Z,11.25
2022-09-11T07:41:57.034Z,11.25
2022-09-11T07:42:57.953Z,16.88
2022-09-11T07:43:58.729Z,16.88
2022-09-11T07:44:58.452Z,16.88
2022-09-11T07:45:59.942Z,16.88
2022-09-11T07:46:59.574Z,16.88
2022-09-11T07:48:00.830Z,16.88
2022-09-11T07:49:01.025Z,16.88
2022-09-11T07:50:01.390Z,16.88
2022-09-11T07:51:02.292Z,11.25
2022-09-11T07:52:03.183Z,11.25
2022-09-11T07:53:04.095Z,11.25
2022-09-11T07:54:05.035Z,11.25
2022-09-11T07:55:05.747Z,11.25
2022-09-11T07:56:06.644Z,16.88
2022-09-11T07:57:07.263Z,16.88
2022-09-11T07:58:08.756Z,22.5
2022-09-11T07:59:08.949Z,22.5
2022-09-11T08:00:09.433Z,16.88
2022-09-11T08:01:10.105Z,16.88
2022-09-11T08:02:09.676Z,22.5
2022-09-11T08:03:10.617Z,22.5
2022-09-11T08:04:10.508Z,22.5
2022-09-11T08:05:11.824Z,22.5
2022-09-11T08:06:11.702Z,22.5
2022-09-11T08:07:12.598Z,22.5
2022-09-11T08:08:13.494Z,28.13
2022-09-11T08:09:14.439Z,33.75
2022-09-11T08:10:40.269Z,45
2022-09-11T08:11:15.913Z,45
2022-09-11T08:12:16.256Z,45
2022-09-11T08:13:20.349Z,39.38
2022-09-11T08:14:17.986Z,33.75
2022-09-11T08:15:18.678Z,28.13
2022-09-11T08:16:19.746Z,22.5
2022-09-11T08:17:19.440Z,22.5
2022-09-11T08:18:20.996Z,28.13
2022-09-11T08:19:20.608Z,28.13
2022-09-11T08:20:21.547Z,33.75
2022-09-11T08:21:24.346Z,45
2022-09-11T08:22:22.244Z,39.38
2022-09-11T08:23:23.451Z,39.38
2022-09-11T08:24:23.669Z,39.38
2022-09-11T08:25:24.677Z,39.38
2022-09-11T08:26:25.286Z,39.38
2022-09-11T08:27:25.925Z,39.38
2022-09-11T08:28:26.819Z,45
2022-09-11T08:29:27.437Z,45
2022-09-11T08:30:28.049Z,50.63
2022-09-11T08:31:29.290Z,45
2022-09-11T08:32:29.940Z,45
2022-09-11T08:33:30.881Z,33.75
2022-09-11T08:34:31.083Z,33.75
2022-09-11T08:35:31.839Z,28.13
2022-09-11T08:36:31.432Z,28.13
2022-09-11T08:37:32.636Z,28.13
2022-09-11T08:38:32.834Z,28.13
2022-09-11T08:39:33.059Z,33.75
2022-09-11T08:40:33.755Z,33.75
2022-09-11T08:41:33.795Z,39.38
2022-09-11T08:42:34.991Z,39.38
2022-09-11T08:43:35.905Z,45
2022-09-11T08:44:39.155Z,45
2022-09-11T08:45:37.258Z,45
2022-09-11T08:46:37.149Z,45
2022-09-11T08:47:37.776Z,39.38
2022-09-11T08:48:39.026Z,39.38
2022-09-11T08:49:38.928Z,45
2022-09-11T08:50:39.574Z,45
2022-09-11T08:51:40.159Z,45
2022-09-11T08:52:41.079Z,45
2022-09-11T08:53:42.669Z,45
2022-09-11T08:54:42.973Z,50.63
2022-09-11T08:55:43.986Z,45
2022-09-11T08:56:44.279Z,45
2022-09-11T08:57:45.212Z,45
2022-09-11T08:58:45.833Z,45
2022-09-11T08:59:46.479Z,45
2022-09-11T09:00:47.093Z,45
2022-09-11T09:01:48.517Z,50.63
2022-09-11T09:02:48.549Z,61.88
2022-09-11T09:03:49.349Z,73.13
2022-09-11T09:04:48.986Z,78.75
2022-09-11T09:05:50.313Z,84.38
2022-09-11T09:06:49.920Z,95.63
2022-09-11T09:07:50.537Z,84.38
2022-09-11T09:08:51.735Z,78.75
2022-09-11T09:09:51.432Z,73.13
2022-09-11T09:10:52.623Z,67.5
2022-09-11T09:11:53.546Z,67.5
2022-09-11T09:12:54.463Z,61.88
2022-09-11T09:13:55.328Z,56.25
2022-09-11T09:14:55.673Z,67.5
2022-09-11T09:15:56.625Z,73.13
2022-09-11T09:16:57.143Z,73.13
2022-09-11T09:17:57.363Z,67.5
2022-09-11T09:18:57.900Z,61.88
2022-09-11T09:19:57.821Z,56.25
2022-09-11T09:20:58.467Z,50.63
2022-09-11T09:21:59.346Z,50.63
2022-09-11T09:22:59.988Z,45
2022-09-11T09:24:00.770Z,45
2022-09-11T09:25:01.453Z,39.38
2022-09-11T09:26:02.456Z,45
2022-09-11T09:27:03.084Z,45
2022-09-11T09:28:03.707Z,50.63
2022-09-11T09:29:04.350Z,50.63
2022-09-11T09:30:04.972Z,45
2022-09-11T09:31:06.417Z,45
2022-09-11T09:32:06.342Z,45
2022-09-11T09:33:07.572Z,50.63
2022-09-11T09:34:07.199Z,45
2022-09-11T09:35:07.695Z,45
2022-09-11T09:36:08.168Z,45
2022-09-11T09:37:09.073Z,45
2022-09-11T09:38:10.270Z,45
2022-09-11T09:39:11.205Z,45
2022-09-11T09:40:12.175Z,56.25
2022-09-11T09:41:12.683Z,56.25
2022-09-11T09:42:12.577Z,56.25
2022-09-11T09:43:13.195Z,67.5
2022-09-11T09:44:17.707Z,73.13
2022-09-11T09:45:14.113Z,73.13
2022-09-11T09:46:15.476Z,73.13
2022-09-11T09:47:16.413Z,84.38
2022-09-11T09:48:16.754Z,90
2022-09-11T09:49:18.012Z,78.75
2022-09-11T09:50:18.218Z,78.75
2022-09-11T09:51:18.454Z,90
2022-09-11T09:52:21.061Z,95.63
2022-09-11T09:53:18.987Z,101.25
2022-09-11T09:54:19.627Z,95.63
2022-09-11T09:55:20.862Z,101.25
2022-09-11T09:56:20.581Z,112.5
2022-09-11T09:57:20.623Z,118.13
2022-09-11T09:58:21.829Z,123.75
2022-09-11T09:59:21.745Z,129.38
2022-09-11T10:00:22.667Z,168.75
2022-09-11T10:01:29.205Z,191.25
2022-09-11T10:02:24.457Z,185.63
2022-09-11T10:03:24.380Z,157.5
2022-09-11T10:04:25.609Z,191.25
2022-09-11T10:05:26.547Z,168.75
2022-09-11T10:06:27.622Z,95.63
2022-09-11T10:07:27.522Z,95.63
2022-09-11T10:08:28.471Z,112.5
2022-09-11T10:09:28.810Z,129.38
2022-09-11T10:10:29.757Z,151.88
2022-09-11T10:11:30.381Z,258.75
2022-09-11T10:12:31.000Z,208.13
2022-09-11T10:13:36.485Z,106.88
2022-09-11T10:15:03.779Z,101.25
2022-09-11T10:15:33.015Z,101.25
2022-09-11T10:16:33.122Z,106.88
2022-09-11T10:17:34.324Z,101.25
2022-09-11T10:18:35.254Z,95.63
2022-09-11T10:19:35.786Z,78.75
2022-09-11T10:20:35.433Z,84.38
2022-09-11T10:21:36.957Z,95.63
2022-09-11T10:22:37.145Z,106.88
2022-09-11T10:23:37.337Z,112.5
2022-09-11T10:24:36.957Z,118.13
2022-09-11T10:25:38.157Z,157.5
2022-09-11T10:26:38.154Z,191.25
2022-09-11T10:27:43.838Z,376.88
2022-09-11T10:28:40.095Z,180
2022-09-11T10:29:40.604Z,191.25
2022-09-11T10:30:40.836Z,106.88
2022-09-11T10:31:41.327Z,101.25
2022-09-11T10:32:42.246Z,84.38
2022-09-11T10:33:43.146Z,78.75
2022-09-11T10:34:44.105Z,73.13
2022-09-11T10:35:45.027Z,61.88
2022-09-11T10:36:45.200Z,45
2022-09-11T10:37:46.412Z,45
2022-09-11T10:38:53.698Z,45
2022-09-11T10:39:48.456Z,50.63
2022-09-11T10:40:48.980Z,56.25
2022-09-11T10:41:48.897Z,61.88
2022-09-11T10:42:50.098Z,56.25
2022-09-11T10:43:50.297Z,67.5
2022-09-11T10:44:50.940Z,112.5
2022-09-11T10:45:52.301Z,84.38
2022-09-11T10:46:53.730Z,78.75
2022-09-11T10:47:52.772Z,67.5
2022-09-11T10:48:55.213Z,50.63
2022-09-11T10:49:55.215Z,50.63
2022-09-11T10:50:55.109Z,61.88
2022-09-11T10:51:58.796Z,67.5
2022-09-11T10:52:56.683Z,360
2022-09-11T10:53:57.026Z,45
2022-09-11T10:54:57.945Z,50.63
2022-09-11T10:55:58.598Z,45
2022-09-11T10:56:59.317Z,39.38
2022-09-11T10:58:00.214Z,22.5
2022-09-11T10:59:06.082Z,22.5
2022-09-11T11:00:01.425Z,22.5
2022-09-11T11:01:02.406Z,28.13
2022-09-11T11:02:03.229Z,39.38
2022-09-11T11:03:03.893Z,45
2022-09-11T11:04:06.471Z,45
2022-09-11T11:05:05.151Z,56.25
2022-09-11T11:06:06.090Z,61.88
2022-09-11T11:07:07.144Z,67.5
2022-09-11T11:08:07.329Z,67.5
2022-09-11T11:09:07.248Z,67.5
2022-09-11T11:10:08.741Z,67.5
2022-09-11T11:11:08.395Z,56.25
2022-09-11T11:12:09.014Z,56.25
2022-09-11T11:13:09.936Z,61.88
2022-09-11T11:14:10.905Z,67.5
2022-09-11T11:15:11.523Z,73.13
2022-09-11T11:16:12.844Z,78.75
2022-09-11T11:17:12.577Z,90
2022-09-11T11:18:12.896Z,101.25
2022-09-11T11:19:13.813Z,106.88
2022-09-11T11:20:15.057Z,157.5
2022-09-11T11:21:14.971Z,146.25
2022-09-11T11:22:14.913Z,219.38
2022-09-11T11:23:21.707Z,253.13
2022-09-11T11:24:16.624Z,163.13
2022-09-11T11:25:17.824Z,112.5
2022-09-11T11:26:19.051Z,196.88
2022-09-11T11:27:19.372Z,466.88
2022-09-11T11:28:19.583Z,225
2022-09-11T11:29:19.506Z,253.13
2022-09-11T11:30:20.423Z,118.13
2022-09-11T11:31:21.390Z,106.88
2022-09-11T11:32:21.708Z,95.63
2022-09-11T11:33:22.608Z,101.25
2022-09-11T11:34:23.830Z,298.13
2022-09-11T11:35:24.058Z,157.5
2022-09-11T11:36:24.699Z,129.38
2022-09-11T11:37:25.424Z,135
2022-09-11T11:38:26.321Z,163.13
2022-09-11T11:39:27.543Z,225
2022-09-11T11:40:27.759Z,185.63
2022-09-11T11:41:27.682Z,500.63
2022-09-11T11:42:28.583Z,270
2022-09-11T11:43:29.520Z,405
2022-09-11T11:44:30.141Z,225
2022-09-11T11:45:31.094Z,157.5
2022-09-11T11:46:31.333Z,163.13
2022-09-11T11:47:31.056Z,168.75
2022-09-11T11:48:31.955Z,213.75
2022-09-11T11:49:32.898Z,174.38
2022-09-11T11:50:37.454Z,174.38
2022-09-11T11:51:34.676Z,129.38
2022-09-11T11:52:34.612Z,118.13
2022-09-11T11:53:35.522Z,118.13
2022-09-11T11:54:36.421Z,112.5
2022-09-11T11:55:37.346Z,106.88
2022-09-11T11:56:38.569Z,101.25
2022-09-11T11:57:39.276Z,106.88
2022-09-11T11:58:39.797Z,118.13
2022-09-11T11:59:41.058Z,118.13
2022-09-11T12:00:40.672Z,106.88
2022-09-11T12:01:41.706Z,90
2022-09-11T12:02:41.611Z,84.38
2022-09-11T12:03:42.916Z,84.38
2022-09-11T12:04:43.602Z,95.63
2022-09-11T12:05:45.127Z,84.38
2022-09-11T12:06:45.326Z,78.75
2022-09-11T12:07:45.655Z,73.13
2022-09-11T12:08:46.139Z,61.88
2022-09-11T12:09:49.359Z,56.25
2022-09-11T12:10:46.853Z,56.25
2022-09-11T12:11:46.792Z,56.25
2022-09-11T12:12:48.014Z,95.63
2022-09-11T12:13:48.065Z,78.75
2022-09-11T12:14:48.666Z,84.38
2022-09-11T12:15:49.693Z,90
2022-09-11T12:16:50.400Z,106.88
2022-09-11T12:17:50.833Z,123.75
2022-09-11T12:18:52.524Z,106.88
2022-09-11T12:19:52.723Z,112.5
2022-09-11T12:20:53.679Z,106.88
2022-09-11T12:21:53.883Z,106.88
2022-09-11T12:22:54.106Z,101.25
2022-09-11T12:23:54.289Z,101.25
2022-09-11T12:24:55.217Z,101.25
2022-09-11T12:25:56.133Z,90
2022-09-11T12:26:56.633Z,84.38
2022-09-11T12:27:56.664Z,78.75
2022-09-11T12:28:56.964Z,78.75
2022-09-11T12:29:57.174Z,78.75
2022-09-11T12:30:57.394Z,78.75
2022-09-11T12:31:57.652Z,78.75
2022-09-11T12:32:57.550Z,84.38
2022-09-11T12:33:58.470Z,90
2022-09-11T12:34:58.087Z,95.63
2022-09-11T12:35:59.038Z,95.63
2022-09-11T12:36:58.631Z,78.75
2022-09-11T12:38:04.788Z,90
2022-09-11T12:38:59.446Z,101.25
2022-09-11T12:40:00.525Z,213.75
2022-09-11T12:41:00.764Z,146.25
2022-09-11T12:42:00.726Z,292.5
2022-09-11T12:43:03.749Z,118.13
2022-09-11T12:44:01.982Z,168.75
2022-09-11T12:45:02.906Z,101.25
2022-09-11T12:46:04.272Z,101.25
2022-09-11T12:47:04.910Z,90
2022-09-11T12:48:06.513Z,90
2022-09-11T12:49:34.070Z,101.25
2022-09-11T12:50:06.988Z,101.25
2022-09-11T12:51:08.241Z,101.25
2022-09-11T12:52:07.881Z,106.88
2022-09-11T12:53:08.830Z,95.63
2022-09-11T12:54:08.427Z,84.38
2022-09-11T12:55:09.053Z,78.75
2022-09-11T12:56:09.972Z,73.13
2022-09-11T12:57:10.456Z,73.13
2022-09-11T12:58:10.886Z,73.13
2022-09-11T12:59:12.196Z,90
2022-09-11T13:00:13.131Z,78.75
2022-09-11T13:01:13.617Z,84.38
2022-09-11T13:02:13.543Z,95.63
2022-09-11T13:03:14.205Z,101.25
2022-09-11T13:04:15.402Z,168.75
2022-09-11T13:05:15.895Z,230.63
2022-09-11T13:06:16.121Z,258.75
2022-09-11T13:07:16.367Z,123.75
2022-09-11T13:08:17.128Z,270
2022-09-11T13:09:17.720Z,213.75
2022-09-11T13:10:18.916Z,174.38
2022-09-11T13:11:20.940Z,112.5
2022-09-11T13:12:20.861Z,112.5
2022-09-11T13:13:21.496Z,106.88
2022-09-11T13:14:22.714Z,90
2022-09-11T13:15:22.902Z,78.75
2022-09-11T13:16:23.728Z,78.75
2022-09-11T13:17:23.769Z,67.5
2022-09-11T13:18:24.762Z,61.88
2022-09-11T13:19:25.664Z,50.63
2022-09-11T13:20:26.654Z,45
2022-09-11T13:21:31.919Z,39.38
2022-09-11T13:22:28.419Z,39.38
2022-09-11T13:23:28.657Z,33.75
2022-09-11T13:24:28.256Z,33.75
2022-09-11T13:25:29.171Z,28.13
2022-09-11T13:26:28.774Z,28.13
2022-09-11T13:27:29.711Z,22.5
2022-09-11T13:28:38.153Z,22.5
2022-09-11T13:29:30.048Z,16.88
2022-09-11T13:30:30.988Z,16.88
2022-09-11T13:31:31.072Z,16.88
2022-09-11T13:32:31.980Z,11.25
2022-09-11T13:33:32.623Z,11.25
2022-09-11T13:34:33.818Z,16.88
2022-09-11T13:35:34.730Z,16.88
2022-09-11T13:36:35.260Z,22.5
2022-09-11T13:37:34.872Z,22.5
2022-09-11T13:38:35.319Z,28.13
2022-09-11T13:39:36.245Z,28.13
2022-09-11T13:40:37.465Z,33.75
2022-09-11T13:41:37.378Z,33.75
2022-09-11T13:42:38.010Z,39.38
2022-09-11T13:43:38.717Z,45
2022-09-11T13:44:39.634Z,50.63
2022-09-11T13:45:40.470Z,67.5
2022-09-11T13:46:40.670Z,73.13
2022-09-11T13:50:41.950Z,67.5
2022-09-11T13:51:42.471Z,61.88
2022-09-11T13:52:42.728Z,50.63
2022-09-11T13:53:42.803Z,50.63
2022-09-11T13:54:43.438Z,45
2022-09-11T13:55:43.382Z,45